Ben — 9VJM4 — position and weather

sailwx.info

Track history (hours):
 
Tides and Currents Weather Stations Pressure Air Temp Water Temp Dewpoint Dewpoint Depression Visibility Wind Speed Wind Dir Waves Ship Positions

Ben

Last reported at 2014-Sep-28 07:34 UTC. Time now 2014-Sep-30 17:56 UTC.
Position S 38°60' E 145°27'.

Length 127 m; draft 6 m.

Type: Ship. MMSI: 565611000.

Date/timePositionNaut miles runAvg speedWind from/ knotsBaromVisibWave heightAir tempDewpointWater temp
2014-Sep-28 07:34S 38°60' E 145°27'1211.8
2014-Sep-28 06:34S 39°04' E 145°41'1211.7
2014-Sep-28 05:34S 39°09' E 145°55'1211.6
2014-Sep-28 04:34S 39°11' E 146°09'1211.8
2014-Sep-28 03:34S 39°11' E 146°25'1312.8
2014-Sep-28 02:33S 39°06' E 146°40'1313.4
2014-Sep-28 01:33S 39°02' E 146°57'1313.5
2014-Sep-28 00:34S 38°58' E 147°13'1413.5
2014-Sep-27 23:33S 38°53' E 147°30'1312.8
2014-Sep-27 22:34S 38°49' E 147°45'1212.3
2014-Sep-27 21:34S 38°45' E 148°00'1311.9
2014-Sep-27 20:29S 38°41' E 148°16'1112.4
2014-Sep-27 19:34S 38°36' E 148°29'1212.4
2014-Sep-27 18:33S 38°32' E 148°44'1313.0
2014-Sep-27 17:33S 38°32' E 149°00'1313.1
2014-Sep-27 16:33S 38°32' E 149°17'1313.0
2014-Sep-27 15:33S 38°31' E 149°34'  
2014-Sep-24 18:23S 33°41' E 152°33'39712.9
2014-Sep-23 11:31S 27°11' E 154°00'1111.7
2014-Sep-23 10:33S 27°02' E 153°53'1611.7
2014-Sep-23 09:10S 26°50' E 153°41'711.6
2014-Sep-23 08:33S 26°48' E 153°33'1111.5
2014-Sep-23 07:33S 26°46' E 153°21'10 9.1
2014-Sep-23 06:29S 26°43' E 153°10'1011.1
2014-Sep-23 05:33S 26°54' E 153°11'1312.6
2014-Sep-23 04:33S 27°04' E 153°18'1010.4
2014-Sep-23 03:33S 27°14' E 153°14'1211.6
2014-Sep-23 02:33S 27°25' E 153°09'1 0.1
2014-Sep-22 02:33S 27°24' E 153°09'7 7.0
2014-Sep-22 01:33S 27°18' E 153°13'7 7.3
2014-Sep-22 00:33S 27°11' E 153°18'6 6.5
2014-Sep-21 23:33S 27°05' E 153°19'1010.3
2014-Sep-21 22:33S 26°56' E 153°12'1010.3
2014-Sep-21 21:33S 26°46' E 153°11'5 4.4
2014-Sep-21 20:31S 26°42' E 153°15'0 0.0
2014-Sep-21 19:31S 26°42' E 153°15'0 0.1
2014-Sep-21 18:31S 26°42' E 153°15'0 0.0
2014-Sep-21 17:31S 26°42' E 153°15'0 0.0
2014-Sep-21 16:31S 26°42' E 153°15'0 0.1
2014-Sep-21 15:31S 26°42' E 153°15'0 0.1
2014-Sep-21 14:31S 26°42' E 153°15'0 0.0
2014-Sep-21 13:31S 26°42' E 153°15'0 0.0
2014-Sep-21 12:31S 26°42' E 153°15'0 0.0
2014-Sep-21 11:31S 26°42' E 153°15'0 0.0
2014-Sep-21 09:31S 26°42' E 153°15'0 0.0
2014-Sep-21 08:31S 26°42' E 153°15'0 0.1
2014-Sep-21 07:31S 26°42' E 153°15'0 0.0
2014-Sep-21 06:25S 26°42' E 153°15'0 0.0
2014-Sep-21 05:31S 26°42' E 153°15'0 0.0
2014-Sep-21 04:28S 26°42' E 153°15'0 0.0
2014-Sep-21 03:31S 26°42' E 153°15'0 0.0
2014-Sep-21 02:31S 26°42' E 153°15'0 0.0
2014-Sep-21 01:31S 26°42' E 153°15'0 0.1
2014-Sep-21 00:31S 26°42' E 153°15'0 0.1
2014-Sep-20 23:31S 26°42' E 153°15'0 0.0
2014-Sep-20 22:31S 26°42' E 153°15'0 0.0
2014-Sep-20 21:31S 26°42' E 153°15'0 0.0
2014-Sep-20 20:31S 26°42' E 153°15'0 0.1
2014-Sep-20 19:31S 26°42' E 153°15'0 0.1
2014-Sep-20 18:31S 26°42' E 153°15'0 0.1
2014-Sep-20 17:31S 26°42' E 153°15'0 0.1
2014-Sep-20 16:31S 26°42' E 153°15'0 0.1
2014-Sep-20 15:31S 26°42' E 153°15'0 0.0
2014-Sep-20 14:31S 26°42' E 153°15'0 0.1
2014-Sep-20 13:31S 26°42' E 153°15'0 0.0
2014-Sep-20 12:31S 26°42' E 153°15'0 0.1
2014-Sep-20 11:31S 26°42' E 153°15'0 0.0
2014-Sep-20 10:31S 26°42' E 153°15'0 0.0
2014-Sep-20 09:31S 26°42' E 153°15'0 0.0
2014-Sep-20 08:31S 26°42' E 153°15'0 0.0
2014-Sep-20 07:31S 26°42' E 153°15'0 0.1
2014-Sep-20 06:31S 26°42' E 153°15'0 0.1
2014-Sep-20 05:28S 26°42' E 153°15'0 0.1
2014-Sep-20 04:31S 26°42' E 153°15'0 0.0
2014-Sep-20 03:31S 26°42' E 153°15'0 0.0
2014-Sep-20 02:31S 26°42' E 153°15'0 0.0
2014-Sep-20 01:31S 26°42' E 153°15'0 0.1
2014-Sep-20 00:31S 26°42' E 153°15'0 0.0
2014-Sep-19 23:31S 26°42' E 153°15'0 0.1
2014-Sep-19 22:31S 26°42' E 153°15'0 0.1
2014-Sep-19 21:31S 26°43' E 153°15'0 0.0
2014-Sep-19 20:31S 26°43' E 153°15'0 0.0
2014-Sep-19 19:31S 26°43' E 153°15'0 0.0
2014-Sep-19 18:22S 26°43' E 153°15'0 0.0
2014-Sep-19 17:31S 26°43' E 153°15'0 0.1
2014-Sep-19 16:31S 26°43' E 153°15'0 0.0
2014-Sep-19 15:31S 26°43' E 153°15'0 0.0
2014-Sep-19 14:16S 26°43' E 153°15'0 0.1
2014-Sep-19 13:22S 26°43' E 153°15'0 0.0
2014-Sep-19 12:31S 26°43' E 153°15'2 2.0
2014-Sep-19 11:33S 26°42' E 153°17'1010.0
2014-Sep-19 10:33S 26°36' E 153°26'1211.9
2014-Sep-19 09:31S 26°26' E 153°35'  
Track history (hours):
 
Tides and Currents Weather Stations Pressure Air Temp Water Temp Dewpoint Dewpoint Depression Visibility Wind Speed Wind Dir Waves Ship Positions

Ben

Last reported at 2014-Sep-28 07:34 UTC. Time now 2014-Sep-30 17:56 UTC.
Position S 38°60' E 145°27'.

Length 127 m; draft 6 m.

Type: Ship. MMSI: 565611000.

Date/timePositionNaut miles runAvg speedWind from/ knotsBaromVisibWave heightAir tempDewpointWater temp
2014-Sep-28 07:34S 38°60' E 145°27'1211.8
2014-Sep-28 06:34S 39°04' E 145°41'1211.7
2014-Sep-28 05:34S 39°09' E 145°55'1211.6
2014-Sep-28 04:34S 39°11' E 146°09'1211.8
2014-Sep-28 03:34S 39°11' E 146°25'1312.8
2014-Sep-28 02:33S 39°06' E 146°40'1313.4
2014-Sep-28 01:33S 39°02' E 146°57'1313.5
2014-Sep-28 00:34S 38°58' E 147°13'1413.5
2014-Sep-27 23:33S 38°53' E 147°30'1312.8
2014-Sep-27 22:34S 38°49' E 147°45'1212.3
2014-Sep-27 21:34S 38°45' E 148°00'1311.9
2014-Sep-27 20:29S 38°41' E 148°16'1112.4
2014-Sep-27 19:34S 38°36' E 148°29'1212.4
2014-Sep-27 18:33S 38°32' E 148°44'1313.0
2014-Sep-27 17:33S 38°32' E 149°00'1313.1
2014-Sep-27 16:33S 38°32' E 149°17'1313.0
2014-Sep-27 15:33S 38°31' E 149°34'  
2014-Sep-24 18:23S 33°41' E 152°33'39712.9
2014-Sep-23 11:31S 27°11' E 154°00'1111.7
2014-Sep-23 10:33S 27°02' E 153°53'1611.7
2014-Sep-23 09:10S 26°50' E 153°41'711.6
2014-Sep-23 08:33S 26°48' E 153°33'1111.5
2014-Sep-23 07:33S 26°46' E 153°21'10 9.1
2014-Sep-23 06:29S 26°43' E 153°10'1011.1
2014-Sep-23 05:33S 26°54' E 153°11'1312.6
2014-Sep-23 04:33S 27°04' E 153°18'1010.4
2014-Sep-23 03:33S 27°14' E 153°14'1211.6
2014-Sep-23 02:33S 27°25' E 153°09'1 0.1
2014-Sep-22 02:33S 27°24' E 153°09'7 7.0
2014-Sep-22 01:33S 27°18' E 153°13'7 7.3
2014-Sep-22 00:33S 27°11' E 153°18'6 6.5
2014-Sep-21 23:33S 27°05' E 153°19'1010.3
2014-Sep-21 22:33S 26°56' E 153°12'1010.3
2014-Sep-21 21:33S 26°46' E 153°11'5 4.4
2014-Sep-21 20:31S 26°42' E 153°15'0 0.0
2014-Sep-21 19:31S 26°42' E 153°15'0 0.1
2014-Sep-21 18:31S 26°42' E 153°15'0 0.0
2014-Sep-21 17:31S 26°42' E 153°15'0 0.0
2014-Sep-21 16:31S 26°42' E 153°15'0 0.1
2014-Sep-21 15:31S 26°42' E 153°15'0 0.1
2014-Sep-21 14:31S 26°42' E 153°15'0 0.0
2014-Sep-21 13:31S 26°42' E 153°15'0 0.0
2014-Sep-21 12:31S 26°42' E 153°15'0 0.0
2014-Sep-21 11:31S 26°42' E 153°15'0 0.0
2014-Sep-21 09:31S 26°42' E 153°15'0 0.0
2014-Sep-21 08:31S 26°42' E 153°15'0 0.1
2014-Sep-21 07:31S 26°42' E 153°15'0 0.0
2014-Sep-21 06:25S 26°42' E 153°15'0 0.0
2014-Sep-21 05:31S 26°42' E 153°15'0 0.0
2014-Sep-21 04:28S 26°42' E 153°15'0 0.0
2014-Sep-21 03:31S 26°42' E 153°15'0 0.0
2014-Sep-21 02:31S 26°42' E 153°15'0 0.0
2014-Sep-21 01:31S 26°42' E 153°15'0 0.1
2014-Sep-21 00:31S 26°42' E 153°15'0 0.1
2014-Sep-20 23:31S 26°42' E 153°15'0 0.0
2014-Sep-20 22:31S 26°42' E 153°15'0 0.0
2014-Sep-20 21:31S 26°42' E 153°15'0 0.0
2014-Sep-20 20:31S 26°42' E 153°15'0 0.1
2014-Sep-20 19:31S 26°42' E 153°15'0 0.1
2014-Sep-20 18:31S 26°42' E 153°15'0 0.1
2014-Sep-20 17:31S 26°42' E 153°15'0 0.1
2014-Sep-20 16:31S 26°42' E 153°15'0 0.1
2014-Sep-20 15:31S 26°42' E 153°15'0 0.0
2014-Sep-20 14:31S 26°42' E 153°15'0 0.1
2014-Sep-20 13:31S 26°42' E 153°15'0 0.0
2014-Sep-20 12:31S 26°42' E 153°15'0 0.1
2014-Sep-20 11:31S 26°42' E 153°15'0 0.0
2014-Sep-20 10:31S 26°42' E 153°15'0 0.0
2014-Sep-20 09:31S 26°42' E 153°15'0 0.0
2014-Sep-20 08:31S 26°42' E 153°15'0 0.0
2014-Sep-20 07:31S 26°42' E 153°15'0 0.1
2014-Sep-20 06:31S 26°42' E 153°15'0 0.1
2014-Sep-20 05:28S 26°42' E 153°15'0 0.1
2014-Sep-20 04:31S 26°42' E 153°15'0 0.0
2014-Sep-20 03:31S 26°42' E 153°15'0 0.0
2014-Sep-20 02:31S 26°42' E 153°15'0 0.0
2014-Sep-20 01:31S 26°42' E 153°15'0 0.1
2014-Sep-20 00:31S 26°42' E 153°15'0 0.0
2014-Sep-19 23:31S 26°42' E 153°15'0 0.1
2014-Sep-19 22:31S 26°42' E 153°15'0 0.1
2014-Sep-19 21:31S 26°43' E 153°15'0 0.0
2014-Sep-19 20:31S 26°43' E 153°15'0 0.0
2014-Sep-19 19:31S 26°43' E 153°15'0 0.0
2014-Sep-19 18:22S 26°43' E 153°15'0 0.0
2014-Sep-19 17:31S 26°43' E 153°15'0 0.1
2014-Sep-19 16:31S 26°43' E 153°15'0 0.0
2014-Sep-19 15:31S 26°43' E 153°15'0 0.0
2014-Sep-19 14:16S 26°43' E 153°15'0 0.1
2014-Sep-19 13:22S 26°43' E 153°15'0 0.0
2014-Sep-19 12:31S 26°43' E 153°15'2 2.0
2014-Sep-19 11:33S 26°42' E 153°17'1010.0
2014-Sep-19 10:33S 26°36' E 153°26'1211.9
2014-Sep-19 09:31S 26°26' E 153°35'  

Dump ship's entire track history